Details From TFFF - Le Lamentin
To TFFR - Pointe A Pitre Le Raizet
Flight Number -
Tags Generated
Created
Modified
Stats Distance 105 nm / 195 km
Max Altitude 0 ft / 0 m
Waypoints 2
Social Downloads 1
Likes 0
Share VATSIM

Download

Looking for another format? Having issues loading an existing format? Contact us
Advertisement - Login to hide

Notes

Generated

Route

TFFF TFFR

ID Type Via Altitude Latitude Longitude Leg Dist Tot Dist Heading (true) Name
O TFFF APT - 0 ft / 0 m 14.58843˚ -61.01831˚ - 0 nm - -
O TFFR APT - 0 ft / 0 m 16.26830˚ -61.54794˚ 105 nm 105 nm 343° / 343° -

Altitude Profile

TFFF

Details ICAO TFFF (FDF)
Name Martinique/Aime Cesaire Intl
Region France (Guadeloupe, Martinique, Saint Barthélemy, Saint Martin)
Timezone America/Martinique (UTC-4.0)
Stats Elevation 16 ft / 5 m (AMSL)
Location 14.591032° -61.003173°
Runways 1
Magnetic Variation 15.026° W

METAR

TFFF 030400Z AUTO 07008KT 9999 -RA FEW011/// BKN045/// BKN070/// ///CB 24/23 Q1015 BECMG FEW023

Decode

TAF

TAF TFFF 030247Z 0304/0324 CNL

Decode

Departure Runways

ID Width Length Bearing (true) Bearing (mag) Surface Threshold Offset Overrun Length
09 148 ft / 45 m 9,852 ft / 3,003 m 79.93° 94.96° Asphalt 0 ft / 0 m 0 ft / 0 m
27 148 ft / 45 m 9,852 ft / 3,003 m 259.94° 274.97° Asphalt 820 ft / 250 m 948 ft / 289 m

TFFR

Details ICAO TFFR (PTP)
Name Pointe a Pitre Le Raizet
Region France (Guadeloupe, Martinique, Saint Barthélemy, Saint Martin)
Timezone America/Guadeloupe (UTC-4.0)
Stats Elevation 35 ft / 11 m (AMSL)
Location 16.265306° -61.531808°
Runways 1
Magnetic Variation 14.831° W

METAR

TFFR 030400Z AUTO 10005KT 9999 BKN052 25/23 Q1015

Decode

TAF

Not found

Destination Runways

ID Width Length Bearing (true) Bearing (mag) Surface Threshold Offset Overrun Length
11 148 ft / 45 m 11,513 ft / 3,509 m 100.94° 115.77° Asphalt 0 ft / 0 m 0 ft / 0 m
29 148 ft / 45 m 11,513 ft / 3,509 m 280.95° 295.78° Asphalt 0 ft / 0 m 0 ft / 0 m

Approach Navaids

Runway Type Ident Frequency Range Bearing (true) Bearing (mag) Slope Elevation
11 Localiser PP 110.30 MHz 18 nm / 33 km 100.95° 115.78° - 36 ft / 11 m (AMSL)
11 Glidescope PP 110.30 MHz 10 nm / 19 km 100.94° 115.77° 3.20° 36 ft / 11 m (AMSL)

Popular Alternatives